sensor_id;sensor_type;location;lat;lon;timestamp;pressure;altitude;pressure_sealevel;temperature;humidity
6532;BME280;3299;42.004;24.868;2024-02-16T00:01:59;98648.22;;;8.59;61.19
6532;BME280;3299;42.004;24.868;2024-02-16T00:04:24;98744.03;;;9.26;60.40
6532;BME280;3299;42.004;24.868;2024-02-16T00:06:50;98644.66;;;8.76;60.36
6532;BME280;3299;42.004;24.868;2024-02-16T00:09:18;98674.75;;;8.91;60.35
6532;BME280;3299;42.004;24.868;2024-02-16T00:11:43;98653.81;;;8.81;60.34
6532;BME280;3299;42.004;24.868;2024-02-16T00:14:10;98682.94;;;8.97;60.56
6532;BME280;3299;42.004;24.868;2024-02-16T00:16:35;98647.16;;;8.77;60.30
6532;BME280;3299;42.004;24.868;2024-02-16T00:19:01;98650.31;;;8.82;60.04
6532;BME280;3299;42.004;24.868;2024-02-16T00:21:27;98702.81;;;9.11;60.04
6532;BME280;3299;42.004;24.868;2024-02-16T00:23:52;98688.59;;;9.04;59.53
6532;BME280;3299;42.004;24.868;2024-02-16T00:26:18;98747.84;;;9.35;59.65
6532;BME280;3299;42.004;24.868;2024-02-16T00:28:43;98746.09;;;9.35;59.81
6532;BME280;3299;42.004;24.868;2024-02-16T00:31:08;98733.06;;;9.23;59.89
6532;BME280;3299;42.004;24.868;2024-02-16T00:33:34;98664.78;;;8.85;60.21
6532;BME280;3299;42.004;24.868;2024-02-16T00:35:59;98713.78;;;9.14;60.77
6532;BME280;3299;42.004;24.868;2024-02-16T00:38:25;98742.53;;;9.38;60.75
6532;BME280;3299;42.004;24.868;2024-02-16T00:40:50;98716.56;;;9.25;60.08
6532;BME280;3299;42.004;24.868;2024-02-16T00:43:15;98667.56;;;8.96;59.75
6532;BME280;3299;42.004;24.868;2024-02-16T00:45:42;98759.16;;;9.62;58.91
6532;BME280;3299;42.004;24.868;2024-02-16T00:48:10;98665.19;;;9.07;58.90
6532;BME280;3299;42.004;24.868;2024-02-16T00:50:35;98734.50;;;9.42;58.86
6532;BME280;3299;42.004;24.868;2024-02-16T00:53:02;98661.53;;;8.81;60.70
6532;BME280;3299;42.004;24.868;2024-02-16T00:55:27;98707.81;;;8.98;62.06
6532;BME280;3299;42.004;24.868;2024-02-16T00:57:52;98679.94;;;8.75;62.92
6532;BME280;3299;42.004;24.868;2024-02-16T01:00:18;98675.53;;;8.77;63.33
6532;BME280;3299;42.004;24.868;2024-02-16T01:02:45;98737.41;;;9.22;63.30
6532;BME280;3299;42.004;24.868;2024-02-16T01:05:10;98658.63;;;8.72;63.47
6532;BME280;3299;42.004;24.868;2024-02-16T01:07:36;98682.88;;;8.99;62.90
6532;BME280;3299;42.004;24.868;2024-02-16T01:10:05;98667.44;;;8.83;63.73
6532;BME280;3299;42.004;24.868;2024-02-16T01:12:31;98649.16;;;8.72;63.89
6532;BME280;3299;42.004;24.868;2024-02-16T01:14:56;98735.94;;;9.18;64.14
6532;BME280;3299;42.004;24.868;2024-02-16T01:17:22;98735.56;;;9.24;64.00
6532;BME280;3299;42.004;24.868;2024-02-16T01:19:47;98653.53;;;8.56;64.68
6532;BME280;3299;42.004;24.868;2024-02-16T01:22:13;98654.38;;;8.57;64.67
6532;BME280;3299;42.004;24.868;2024-02-16T01:24:39;98740.47;;;9.29;62.54
6532;BME280;3299;42.004;24.868;2024-02-16T01:27:04;98686.13;;;8.73;65.09
6532;BME280;3299;42.004;24.868;2024-02-16T01:29:30;98643.06;;;8.59;64.35
6532;BME280;3299;42.004;24.868;2024-02-16T01:31:55;98731.69;;;9.17;64.26
6532;BME280;3299;42.004;24.868;2024-02-16T01:34:20;98674.63;;;8.92;64.66
6532;BME280;3299;42.004;24.868;2024-02-16T01:36:46;98743.47;;;9.21;64.97
6532;BME280;3299;42.004;24.868;2024-02-16T01:39:11;98736.72;;;9.19;65.21
6532;BME280;3299;42.004;24.868;2024-02-16T01:41:40;98729.09;;;9.17;65.27
6532;BME280;3299;42.004;24.868;2024-02-16T01:44:05;98668.09;;;8.87;64.93
6532;BME280;3299;42.004;24.868;2024-02-16T01:46:31;98727.44;;;9.16;64.96
6532;BME280;3299;42.004;24.868;2024-02-16T01:49:00;98702.31;;;9.04;65.00
6532;BME280;3299;42.004;24.868;2024-02-16T01:51:26;98737.06;;;9.28;64.84
6532;BME280;3299;42.004;24.868;2024-02-16T01:53:52;98726.75;;;9.28;64.46
6532;BME280;3299;42.004;24.868;2024-02-16T01:56:19;98733.44;;;9.17;64.79
6532;BME280;3299;42.004;24.868;2024-02-16T01:58:47;98733.13;;;9.07;65.52
6532;BME280;3299;42.004;24.868;2024-02-16T02:01:13;98649.50;;;8.66;63.69
6532;BME280;3299;42.004;24.868;2024-02-16T02:03:38;98728.69;;;9.09;64.15
6532;BME280;3299;42.004;24.868;2024-02-16T02:06:04;98686.78;;;8.76;64.53
6532;BME280;3299;42.004;24.868;2024-02-16T02:08:29;98685.66;;;8.80;64.10
6532;BME280;3299;42.004;24.868;2024-02-16T02:10:54;98699.72;;;8.90;65.18
6532;BME280;3299;42.004;24.868;2024-02-16T02:13:20;98639.34;;;8.63;64.73
6532;BME280;3299;42.004;24.868;2024-02-16T02:15:47;98646.72;;;8.55;66.29
6532;BME280;3299;42.004;24.868;2024-02-16T02:18:13;98690.09;;;8.78;65.99
6532;BME280;3299;42.004;24.868;2024-02-16T02:20:39;98737.41;;;8.93;66.62
6532;BME280;3299;42.004;24.868;2024-02-16T02:23:04;98734.19;;;8.89;66.46
6532;BME280;3299;42.004;24.868;2024-02-16T02:25:30;98637.09;;;8.43;66.04
6532;BME280;3299;42.004;24.868;2024-02-16T02:27:55;98685.28;;;8.72;65.86
6532;BME280;3299;42.004;24.868;2024-02-16T02:30:21;98642.06;;;8.46;66.43
6532;BME280;3299;42.004;24.868;2024-02-16T02:32:47;98695.41;;;8.75;66.27
6532;BME280;3299;42.004;24.868;2024-02-16T02:35:18;98719.06;;;8.97;65.85
6532;BME280;3299;42.004;24.868;2024-02-16T02:37:44;98631.59;;;8.49;65.74
6532;BME280;3299;42.004;24.868;2024-02-16T02:40:09;98724.28;;;9.11;65.71
6532;BME280;3299;42.004;24.868;2024-02-16T02:42:35;98698.56;;;8.80;66.04
6532;BME280;3299;42.004;24.868;2024-02-16T02:45:04;98666.41;;;8.56;66.27
6532;BME280;3299;42.004;24.868;2024-02-16T02:47:29;98630.34;;;8.41;66.43
6532;BME280;3299;42.004;24.868;2024-02-16T02:49:55;98636.09;;;8.46;66.61
6532;BME280;3299;42.004;24.868;2024-02-16T02:52:21;98725.50;;;8.90;66.67
6532;BME280;3299;42.004;24.868;2024-02-16T02:54:46;98728.66;;;8.95;66.30
6532;BME280;3299;42.004;24.868;2024-02-16T02:57:12;98665.84;;;8.67;66.15
6532;BME280;3299;42.004;24.868;2024-02-16T02:59:38;98639.66;;;8.43;66.92
6532;BME280;3299;42.004;24.868;2024-02-16T03:02:03;98595.88;;;8.12;66.66
6532;BME280;3299;42.004;24.868;2024-02-16T03:04:29;98706.84;;;8.71;66.86
6532;BME280;3299;42.004;24.868;2024-02-16T03:06:54;98721.53;;;8.69;66.72
6532;BME280;3299;42.004;24.868;2024-02-16T03:09:20;98712.13;;;8.84;64.24
6532;BME280;3299;42.004;24.868;2024-02-16T03:11:45;98686.66;;;8.48;65.08
6532;BME280;3299;42.004;24.868;2024-02-16T03:14:11;98603.19;;;8.20;62.69
6532;BME280;3299;42.004;24.868;2024-02-16T03:16:37;98744.09;;;9.11;61.85
6532;BME280;3299;42.004;24.868;2024-02-16T03:19:05;98693.25;;;8.83;61.40
6532;BME280;3299;42.004;24.868;2024-02-16T03:21:31;98755.06;;;9.14;62.29
6532;BME280;3299;42.004;24.868;2024-02-16T03:23:57;98709.88;;;8.93;62.64
6532;BME280;3299;42.004;24.868;2024-02-16T03:26:23;98729.47;;;9.11;60.54
6532;BME280;3299;42.004;24.868;2024-02-16T03:28:48;98695.56;;;8.88;62.05
6532;BME280;3299;42.004;24.868;2024-02-16T03:31:21;98742.38;;;9.25;60.30
6532;BME280;3299;42.004;24.868;2024-02-16T03:33:47;98664.84;;;8.83;60.69
6532;BME280;3299;42.004;24.868;2024-02-16T03:36:13;98763.63;;;9.44;59.31
6532;BME280;3299;42.004;24.868;2024-02-16T03:38:43;98748.13;;;9.30;59.67
6532;BME280;3299;42.004;24.868;2024-02-16T03:41:13;98662.97;;;8.71;61.22
6532;BME280;3299;42.004;24.868;2024-02-16T03:43:39;98752.06;;;9.22;61.93
6532;BME280;3299;42.004;24.868;2024-02-16T03:46:08;98666.94;;;8.77;61.10
6532;BME280;3299;42.004;24.868;2024-02-16T03:48:34;98744.81;;;9.28;60.57
6532;BME280;3299;42.004;24.868;2024-02-16T03:50:59;98665.03;;;8.80;61.58
6532;BME280;3299;42.004;24.868;2024-02-16T03:53:25;98693.84;;;9.02;61.26
6532;BME280;3299;42.004;24.868;2024-02-16T03:55:51;98693.69;;;9.05;61.15
6532;BME280;3299;42.004;24.868;2024-02-16T03:58:16;98664.50;;;8.89;61.01
6532;BME280;3299;42.004;24.868;2024-02-16T04:00:42;98694.13;;;9.12;61.26
6532;BME280;3299;42.004;24.868;2024-02-16T04:03:07;98760.59;;;9.52;59.52
6532;BME280;3299;42.004;24.868;2024-02-16T04:05:34;98738.16;;;9.38;61.11
6532;BME280;3299;42.004;24.868;2024-02-16T04:08:00;98759.03;;;9.49;61.96
6532;BME280;3299;42.004;24.868;2024-02-16T04:10:27;98770.00;;;9.52;62.52
6532;BME280;3299;42.004;24.868;2024-02-16T04:12:55;98723.19;;;9.15;62.15
6532;BME280;3299;42.004;24.868;2024-02-16T04:15:21;98757.88;;;9.25;63.42
6532;BME280;3299;42.004;24.868;2024-02-16T04:17:47;98676.63;;;8.73;63.92
6532;BME280;3299;42.004;24.868;2024-02-16T04:20:14;98757.22;;;9.22;64.80
6532;BME280;3299;42.004;24.868;2024-02-16T04:22:40;98694.75;;;8.72;65.37
6532;BME280;3299;42.004;24.868;2024-02-16T04:25:05;98692.50;;;8.66;66.09
6532;BME280;3299;42.004;24.868;2024-02-16T04:27:31;98692.28;;;8.55;67.04
6532;BME280;3299;42.004;24.868;2024-02-16T04:29:56;98717.50;;;8.65;67.26
6532;BME280;3299;42.004;24.868;2024-02-16T04:32:22;98752.16;;;8.75;68.11
6532;BME280;3299;42.004;24.868;2024-02-16T04:34:51;98667.72;;;8.34;67.92
6532;BME280;3299;42.004;24.868;2024-02-16T04:37:17;98718.06;;;8.70;68.00
6532;BME280;3299;42.004;24.868;2024-02-16T04:39:44;98754.28;;;8.98;67.65
6532;BME280;3299;42.004;24.868;2024-02-16T04:42:10;98734.69;;;8.80;67.90
6532;BME280;3299;42.004;24.868;2024-02-16T04:44:39;98716.53;;;8.82;67.91
6532;BME280;3299;42.004;24.868;2024-02-16T04:47:05;98727.16;;;8.91;67.81
6532;BME280;3299;42.004;24.868;2024-02-16T04:49:30;98740.88;;;9.07;68.07
6532;BME280;3299;42.004;24.868;2024-02-16T04:51:55;98755.72;;;9.18;67.78
6532;BME280;3299;42.004;24.868;2024-02-16T04:54:21;98762.75;;;9.16;67.77
6532;BME280;3299;42.004;24.868;2024-02-16T04:56:48;98663.56;;;8.61;67.75
6532;BME280;3299;42.004;24.868;2024-02-16T04:59:14;98714.53;;;8.87;67.72
6532;BME280;3299;42.004;24.868;2024-02-16T05:01:39;98725.81;;;9.00;65.38
6532;BME280;3299;42.004;24.868;2024-02-16T05:04:04;98679.63;;;8.66;65.28
6532;BME280;3299;42.004;24.868;2024-02-16T05:06:30;98730.66;;;8.90;65.43
6532;BME280;3299;42.004;24.868;2024-02-16T05:08:56;98762.38;;;8.92;65.29
6532;BME280;3299;42.004;24.868;2024-02-16T05:11:22;98745.91;;;8.79;64.94
6532;BME280;3299;42.004;24.868;2024-02-16T05:13:50;98777.03;;;8.92;65.54
6532;BME280;3299;42.004;24.868;2024-02-16T05:16:15;98714.75;;;8.53;66.01
6532;BME280;3299;42.004;24.868;2024-02-16T05:18:40;98703.78;;;8.49;65.30
6532;BME280;3299;42.004;24.868;2024-02-16T05:21:06;98720.31;;;8.61;65.38
6532;BME280;3299;42.004;24.868;2024-02-16T05:23:32;98709.53;;;8.54;64.97
6532;BME280;3299;42.004;24.868;2024-02-16T05:25:57;98704.13;;;8.43;64.57
6532;BME280;3299;42.004;24.868;2024-02-16T05:28:23;98743.63;;;8.59;65.34
6532;BME280;3299;42.004;24.868;2024-02-16T05:30:48;98658.88;;;8.07;65.71
6532;BME280;3299;42.004;24.868;2024-02-16T05:33:13;98648.91;;;8.01;66.16
6532;BME280;3299;42.004;24.868;2024-02-16T05:35:41;98757.66;;;8.69;65.72
6532;BME280;3299;42.004;24.868;2024-02-16T05:38:09;98734.72;;;8.49;65.65
6532;BME280;3299;42.004;24.868;2024-02-16T05:40:56;98708.69;;;8.38;65.32
6532;BME280;3299;42.004;24.868;2024-02-16T05:43:22;98733.41;;;8.42;65.45
6532;BME280;3299;42.004;24.868;2024-02-16T05:45:49;98808.59;;;8.81;66.12
6532;BME280;3299;42.004;24.868;2024-02-16T05:48:14;98775.16;;;8.49;65.97
6532;BME280;3299;42.004;24.868;2024-02-16T05:50:40;98821.81;;;8.75;66.09
6532;BME280;3299;42.004;24.868;2024-02-16T05:53:06;98773.16;;;8.38;66.41
6532;BME280;3299;42.004;24.868;2024-02-16T05:55:32;98734.13;;;8.13;66.36
6532;BME280;3299;42.004;24.868;2024-02-16T05:57:57;98808.44;;;8.53;66.84
6532;BME280;3299;42.004;24.868;2024-02-16T06:00:23;98826.16;;;8.59;66.92
6532;BME280;3299;42.004;24.868;2024-02-16T06:02:48;98792.19;;;8.36;67.16
6532;BME280;3299;42.004;24.868;2024-02-16T06:05:14;98823.00;;;8.54;67.05
6532;BME280;3299;42.004;24.868;2024-02-16T06:07:39;98736.34;;;7.88;67.69
6532;BME280;3299;42.004;24.868;2024-02-16T06:10:06;98814.72;;;8.32;67.96
6532;BME280;3299;42.004;24.868;2024-02-16T06:12:38;98831.22;;;8.45;68.23
6532;BME280;3299;42.004;24.868;2024-02-16T06:15:05;98832.97;;;8.45;68.51
6532;BME280;3299;42.004;24.868;2024-02-16T06:17:30;98741.84;;;7.98;68.42
6532;BME280;3299;42.004;24.868;2024-02-16T06:19:56;98745.84;;;8.19;67.93
6532;BME280;3299;42.004;24.868;2024-02-16T06:22:21;98792.47;;;8.47;67.11
6532;BME280;3299;42.004;24.868;2024-02-16T06:24:47;98788.81;;;8.35;67.75
6532;BME280;3299;42.004;24.868;2024-02-16T06:27:12;98725.25;;;7.86;68.74
6532;BME280;3299;42.004;24.868;2024-02-16T06:29:38;98802.53;;;8.19;69.54
6532;BME280;3299;42.004;24.868;2024-02-16T06:32:03;98795.19;;;8.11;70.33
6532;BME280;3299;42.004;24.868;2024-02-16T06:34:30;98828.81;;;8.42;70.23
6532;BME280;3299;42.004;24.868;2024-02-16T06:36:55;98740.41;;;7.92;70.84
6532;BME280;3299;42.004;24.868;2024-02-16T06:39:21;98785.31;;;8.36;70.48
6532;BME280;3299;42.004;24.868;2024-02-16T06:41:47;98762.09;;;8.21;70.43
6532;BME280;3299;42.004;24.868;2024-02-16T06:44:15;98744.16;;;8.02;70.76
6532;BME280;3299;42.004;24.868;2024-02-16T06:46:41;98843.56;;;8.71;70.42
6532;BME280;3299;42.004;24.868;2024-02-16T06:49:07;98742.88;;;8.26;70.24
6532;BME280;3299;42.004;24.868;2024-02-16T06:51:32;98850.88;;;8.94;70.02
6532;BME280;3299;42.004;24.868;2024-02-16T06:53:58;98757.94;;;8.49;69.91
6532;BME280;3299;42.004;24.868;2024-02-16T06:56:23;98787.13;;;8.81;69.39
6532;BME280;3299;42.004;24.868;2024-02-16T06:58:49;98806.47;;;9.03;69.41
6532;BME280;3299;42.004;24.868;2024-02-16T07:01:16;98770.97;;;8.93;68.95
6532;BME280;3299;42.004;24.868;2024-02-16T07:03:43;98793.66;;;9.17;67.89
6532;BME280;3299;42.004;24.868;2024-02-16T07:06:09;98793.88;;;9.28;67.20
6532;BME280;3299;42.004;24.868;2024-02-16T07:08:42;98751.78;;;9.12;66.44
6532;BME280;3299;42.004;24.868;2024-02-16T07:11:08;98846.19;;;9.75;65.31
6532;BME280;3299;42.004;24.868;2024-02-16T07:13:37;98806.09;;;9.54;65.02
6532;BME280;3299;42.004;24.868;2024-02-16T07:16:03;98779.34;;;9.55;65.26
6532;BME280;3299;42.004;24.868;2024-02-16T07:18:30;98810.19;;;9.72;65.82
6532;BME280;3299;42.004;24.868;2024-02-16T07:20:56;98807.31;;;9.76;66.01
6532;BME280;3299;42.004;24.868;2024-02-16T07:23:21;98764.97;;;9.51;66.51
6532;BME280;3299;42.004;24.868;2024-02-16T07:25:47;98823.69;;;9.91;66.20
6532;BME280;3299;42.004;24.868;2024-02-16T07:28:14;98827.38;;;10.01;66.48
6532;BME280;3299;42.004;24.868;2024-02-16T07:30:39;98870.84;;;10.24;66.20
6532;BME280;3299;42.004;24.868;2024-02-16T07:33:05;98775.88;;;9.70;66.45
6532;BME280;3299;42.004;24.868;2024-02-16T07:35:33;98846.63;;;10.25;65.32
6532;BME280;3299;42.004;24.868;2024-02-16T07:37:58;98853.28;;;10.29;65.21
6532;BME280;3299;42.004;24.868;2024-02-16T07:40:24;98780.59;;;9.91;63.84
6532;BME280;3299;42.004;24.868;2024-02-16T07:42:49;98825.66;;;10.15;64.27
6532;BME280;3299;42.004;24.868;2024-02-16T07:45:14;98860.97;;;10.30;64.46
6532;BME280;3299;42.004;24.868;2024-02-16T07:47:41;98802.38;;;10.01;64.04
6532;BME280;3299;42.004;24.868;2024-02-16T07:50:07;98867.69;;;10.47;64.31
6532;BME280;3299;42.004;24.868;2024-02-16T07:52:32;98773.69;;;9.92;64.26
6532;BME280;3299;42.004;24.868;2024-02-16T07:54:58;98789.34;;;9.89;64.49
6532;BME280;3299;42.004;24.868;2024-02-16T07:57:24;98862.06;;;10.40;64.88
6532;BME280;3299;42.004;24.868;2024-02-16T07:59:51;98870.38;;;10.45;64.99
6532;BME280;3299;42.004;24.868;2024-02-16T08:02:17;98804.13;;;9.87;64.90
6532;BME280;3299;42.004;24.868;2024-02-16T08:04:47;98803.94;;;9.90;64.39
6532;BME280;3299;42.004;24.868;2024-02-16T08:07:13;98871.66;;;10.38;64.33
6532;BME280;3299;42.004;24.868;2024-02-16T08:09:38;98879.63;;;10.35;62.94
6532;BME280;3299;42.004;24.868;2024-02-16T08:12:04;98871.75;;;10.23;62.17
6532;BME280;3299;42.004;24.868;2024-02-16T08:14:32;98861.97;;;10.28;62.43
6532;BME280;3299;42.004;24.868;2024-02-16T08:16:58;98820.38;;;10.03;62.94
6532;BME280;3299;42.004;24.868;2024-02-16T08:19:32;98876.56;;;10.57;61.63
6532;BME280;3299;42.004;24.868;2024-02-16T08:21:59;98874.88;;;10.70;61.17
6532;BME280;3299;42.004;24.868;2024-02-16T08:24:24;98836.25;;;10.67;60.44
6532;BME280;3299;42.004;24.868;2024-02-16T08:26:50;98877.69;;;11.07;58.95
6532;BME280;3299;42.004;24.868;2024-02-16T08:29:16;98824.72;;;10.99;58.54
6532;BME280;3299;42.004;24.868;2024-02-16T08:31:41;98794.22;;;10.90;58.41
6532;BME280;3299;42.004;24.868;2024-02-16T08:34:09;98801.56;;;11.10;57.95
6532;BME280;3299;42.004;24.868;2024-02-16T08:36:36;98858.03;;;11.56;57.58
6532;BME280;3299;42.004;24.868;2024-02-16T08:39:01;98788.00;;;11.19;57.62
6532;BME280;3299;42.004;24.868;2024-02-16T08:41:27;98821.25;;;11.51;56.79
6532;BME280;3299;42.004;24.868;2024-02-16T08:43:55;98867.38;;;11.85;56.23
6532;BME280;3299;42.004;24.868;2024-02-16T08:46:21;98862.00;;;11.88;55.82
6532;BME280;3299;42.004;24.868;2024-02-16T08:48:48;98873.81;;;12.05;55.00
6532;BME280;3299;42.004;24.868;2024-02-16T08:51:14;98871.84;;;12.08;54.62
6532;BME280;3299;42.004;24.868;2024-02-16T08:53:40;98838.16;;;11.96;53.96
6532;BME280;3299;42.004;24.868;2024-02-16T08:56:09;98794.38;;;11.79;53.58
6532;BME280;3299;42.004;24.868;2024-02-16T08:58:36;98881.41;;;12.33;53.35
6532;BME280;3299;42.004;24.868;2024-02-16T09:01:02;98850.06;;;12.23;52.57
6532;BME280;3299;42.004;24.868;2024-02-16T09:03:27;98891.03;;;12.56;52.22
6532;BME280;3299;42.004;24.868;2024-02-16T09:05:53;98870.19;;;12.45;51.86
6532;BME280;3299;42.004;24.868;2024-02-16T09:08:18;98851.31;;;12.30;52.33
6532;BME280;3299;42.004;24.868;2024-02-16T09:10:43;98886.78;;;12.55;52.32
6532;BME280;3299;42.004;24.868;2024-02-16T09:13:09;98825.28;;;12.07;52.61
6532;BME280;3299;42.004;24.868;2024-02-16T09:15:37;98854.75;;;12.31;52.56
6532;BME280;3299;42.004;24.868;2024-02-16T09:18:03;98850.78;;;12.38;52.58
6532;BME280;3299;42.004;24.868;2024-02-16T09:20:29;98825.34;;;12.30;51.76
6532;BME280;3299;42.004;24.868;2024-02-16T09:22:54;98855.84;;;12.52;51.76
6532;BME280;3299;42.004;24.868;2024-02-16T09:25:19;98895.47;;;12.79;51.37
6532;BME280;3299;42.004;24.868;2024-02-16T09:27:46;98899.44;;;12.72;51.11
6532;BME280;3299;42.004;24.868;2024-02-16T09:30:12;98874.25;;;12.49;51.08
6532;BME280;3299;42.004;24.868;2024-02-16T09:32:41;98881.59;;;12.55;51.32
6532;BME280;3299;42.004;24.868;2024-02-16T09:35:08;98889.16;;;12.58;51.63
6532;BME280;3299;42.004;24.868;2024-02-16T09:37:35;98821.63;;;12.22;51.25
6532;BME280;3299;42.004;24.868;2024-02-16T09:40:01;98877.97;;;12.45;51.89
6532;BME280;3299;42.004;24.868;2024-02-16T09:42:29;98894.50;;;12.56;51.84
6532;BME280;3299;42.004;24.868;2024-02-16T09:44:54;98850.97;;;12.35;51.86
6532;BME280;3299;42.004;24.868;2024-02-16T09:47:21;98892.59;;;12.58;51.84
6532;BME280;3299;42.004;24.868;2024-02-16T09:49:48;98887.28;;;12.72;51.46
6532;BME280;3299;42.004;24.868;2024-02-16T09:52:13;98888.41;;;12.81;51.16
6532;BME280;3299;42.004;24.868;2024-02-16T09:54:39;98836.63;;;12.54;51.20
6532;BME280;3299;42.004;24.868;2024-02-16T09:57:05;98878.00;;;12.81;51.03
6532;BME280;3299;42.004;24.868;2024-02-16T09:59:30;98845.34;;;12.66;51.00
6532;BME280;3299;42.004;24.868;2024-02-16T10:02:01;98880.59;;;12.93;50.64
6532;BME280;3299;42.004;24.868;2024-02-16T10:04:27;98856.38;;;12.93;50.44
6532;BME280;3299;42.004;24.868;2024-02-16T10:06:53;98832.91;;;12.82;49.98
6532;BME280;3299;42.004;24.868;2024-02-16T10:09:26;98861.16;;;12.99;49.74
6532;BME280;3299;42.004;24.868;2024-02-16T10:11:52;98860.28;;;13.11;49.81
6532;BME280;3299;42.004;24.868;2024-02-16T10:14:17;98781.88;;;12.70;48.85
6532;BME280;3299;42.004;24.868;2024-02-16T10:16:45;98807.69;;;12.84;48.81
6532;BME280;3299;42.004;24.868;2024-02-16T10:19:12;98767.66;;;12.63;48.62
6532;BME280;3299;42.004;24.868;2024-02-16T10:21:37;98802.56;;;12.95;48.12
6532;BME280;3299;42.004;24.868;2024-02-16T10:24:08;98855.44;;;13.30;47.89
6532;BME280;3299;42.004;24.868;2024-02-16T10:26:34;98809.72;;;13.04;47.82
6532;BME280;3299;42.004;24.868;2024-02-16T10:29:14;98790.13;;;13.00;46.86
6532;BME280;3299;42.004;24.868;2024-02-16T10:31:42;98766.66;;;12.89;46.57
6532;BME280;3299;42.004;24.868;2024-02-16T10:34:07;98801.44;;;13.22;46.41
6532;BME280;3299;42.004;24.868;2024-02-16T10:36:38;98789.06;;;13.37;45.97
6532;BME280;3299;42.004;24.868;2024-02-16T10:39:06;98786.28;;;13.51;45.95
6532;BME280;3299;42.004;24.868;2024-02-16T10:41:35;98805.13;;;13.76;44.89
6532;BME280;3299;42.004;24.868;2024-02-16T10:44:02;98844.63;;;14.27;43.94
6532;BME280;3299;42.004;24.868;2024-02-16T10:46:28;98837.75;;;14.26;43.84
6532;BME280;3299;42.004;24.868;2024-02-16T10:48:54;98829.97;;;14.48;43.85
6532;BME280;3299;42.004;24.868;2024-02-16T10:51:49;98836.56;;;14.74;42.99
6532;BME280;3299;42.004;24.868;2024-02-16T10:54:19;98807.78;;;14.86;41.51
6532;BME280;3299;42.004;24.868;2024-02-16T10:56:47;98801.44;;;15.11;41.63
6532;BME280;3299;42.004;24.868;2024-02-16T10:59:13;98797.06;;;15.32;41.22
6532;BME280;3299;42.004;24.868;2024-02-16T11:01:39;98765.09;;;15.30;40.44
6532;BME280;3299;42.004;24.868;2024-02-16T11:04:07;98783.72;;;15.57;39.89
6532;BME280;3299;42.004;24.868;2024-02-16T11:06:48;98788.22;;;15.75;39.50
6532;BME280;3299;42.004;24.868;2024-02-16T11:12:01;98832.19;;;16.21;39.36
6532;BME280;3299;42.004;24.868;2024-02-16T11:14:56;98820.44;;;16.36;39.03
6532;BME280;3299;42.004;24.868;2024-02-16T11:17:23;98831.25;;;16.52;39.02
6532;BME280;3299;42.004;24.868;2024-02-16T11:19:49;98827.69;;;16.53;38.80
6532;BME280;3299;42.004;24.868;2024-02-16T11:22:18;98813.19;;;16.39;39.04
6532;BME280;3299;42.004;24.868;2024-02-16T11:24:49;98741.94;;;15.98;39.43
6532;BME280;3299;42.004;24.868;2024-02-16T11:27:15;98781.47;;;16.44;38.38
6532;BME280;3299;42.004;24.868;2024-02-16T11:29:44;98815.38;;;16.74;37.45
6532;BME280;3299;42.004;24.868;2024-02-16T11:32:10;98742.78;;;16.38;37.49
6532;BME280;3299;42.004;24.868;2024-02-16T11:34:35;98754.09;;;16.48;37.35
6532;BME280;3299;42.004;24.868;2024-02-16T11:37:03;98772.41;;;16.57;37.47
6532;BME280;3299;42.004;24.868;2024-02-16T11:39:30;98818.31;;;16.90;38.08
6532;BME280;3299;42.004;24.868;2024-02-16T11:42:11;98787.91;;;16.40;38.08
6532;BME280;3299;42.004;24.868;2024-02-16T11:44:38;98744.00;;;16.34;37.83
6532;BME280;3299;42.004;24.868;2024-02-16T11:47:06;98766.09;;;16.60;37.81
6532;BME280;3299;42.004;24.868;2024-02-16T11:49:34;98801.50;;;16.92;38.10
6532;BME280;3299;42.004;24.868;2024-02-16T11:52:00;98794.09;;;16.97;36.91
6532;BME280;3299;42.004;24.868;2024-02-16T11:54:25;98750.16;;;16.53;37.73
6532;BME280;3299;42.004;24.868;2024-02-16T11:56:51;98821.88;;;16.89;37.64
6532;BME280;3299;42.004;24.868;2024-02-16T11:59:18;98792.28;;;16.69;37.99
6532;BME280;3299;42.004;24.868;2024-02-16T12:01:54;98795.13;;;16.57;37.79
6532;BME280;3299;42.004;24.868;2024-02-16T12:04:29;98808.44;;;16.54;38.60
6532;BME280;3299;42.004;24.868;2024-02-16T12:06:59;98762.97;;;16.06;38.91
6532;BME280;3299;42.004;24.868;2024-02-16T12:09:25;98733.34;;;15.86;39.11
6532;BME280;3299;42.004;24.868;2024-02-16T12:11:52;98800.28;;;16.17;39.79
6532;BME280;3299;42.004;24.868;2024-02-16T12:14:18;98792.50;;;15.76;39.55
6532;BME280;3299;42.004;24.868;2024-02-16T12:16:51;98784.81;;;15.54;40.34
6532;BME280;3299;42.004;24.868;2024-02-16T12:19:18;98733.84;;;15.19;40.44
6532;BME280;3299;42.004;24.868;2024-02-16T12:21:57;98752.94;;;15.19;40.91
6532;BME280;3299;42.004;24.868;2024-02-16T12:24:23;98770.69;;;15.25;40.94
6532;BME280;3299;42.004;24.868;2024-02-16T12:26:48;98759.84;;;15.41;41.54
6532;BME280;3299;42.004;24.868;2024-02-16T12:29:14;98732.75;;;15.32;40.81
6532;BME280;3299;42.004;24.868;2024-02-16T12:31:40;98731.28;;;15.08;40.90
6532;BME280;3299;42.004;24.868;2024-02-16T12:34:07;98770.06;;;15.01;41.41
6532;BME280;3299;42.004;24.868;2024-02-16T12:36:33;98771.56;;;14.83;42.19
6532;BME280;3299;42.004;24.868;2024-02-16T12:39:03;98731.94;;;14.69;42.48
6532;BME280;3299;42.004;24.868;2024-02-16T12:41:32;98696.44;;;14.57;42.32
6532;BME280;3299;42.004;24.868;2024-02-16T12:43:57;98731.22;;;14.98;41.75
6532;BME280;3299;42.004;24.868;2024-02-16T12:46:23;98725.78;;;15.22;41.44
6532;BME280;3299;42.004;24.868;2024-02-16T12:48:49;98737.84;;;15.54;41.19
6532;BME280;3299;42.004;24.868;2024-02-16T12:51:15;98703.66;;;15.57;40.99
6532;BME280;3299;42.004;24.868;2024-02-16T12:53:40;98782.50;;;16.32;39.81
6532;BME280;3299;42.004;24.868;2024-02-16T12:56:07;98751.22;;;16.11;39.51
6532;BME280;3299;42.004;24.868;2024-02-16T12:58:34;98703.56;;;15.59;39.75
6532;BME280;3299;42.004;24.868;2024-02-16T13:01:00;98703.88;;;15.24;40.79
6532;BME280;3299;42.004;24.868;2024-02-16T13:03:25;98774.59;;;15.72;40.88
6532;BME280;3299;42.004;24.868;2024-02-16T13:05:51;98728.03;;;15.67;40.53
6532;BME280;3299;42.004;24.868;2024-02-16T13:08:16;98768.38;;;16.14;40.50
6532;BME280;3299;42.004;24.868;2024-02-16T13:10:41;98742.88;;;16.27;39.46
6532;BME280;3299;42.004;24.868;2024-02-16T13:13:07;98746.00;;;16.51;39.41
6532;BME280;3299;42.004;24.868;2024-02-16T13:15:33;98781.69;;;16.80;39.57
6532;BME280;3299;42.004;24.868;2024-02-16T13:17:58;98756.25;;;16.73;38.48